Map

Track Data

SID SEASON NUMBER BASIN SUBBASIN NAME ISO_TIME NATURE LAT LON WMO_WIND WMO_PRES WMO_AGENCY TRACK_TYPE DIST2LAND LANDFALL IFLAG USA_AGENCY USA_ATCF_ID USA_LAT USA_LON USA_RECORD USA_STATUS USA_WIND USA_PRES USA_SSHS USA_R34_NE USA_R34_SE USA_R34_SW USA_R34_NW USA_R50_NE USA_R50_SE USA_R50_SW USA_R50_NW USA_R64_NE USA_R64_SE USA_R64_SW USA_R64_NW USA_POCI USA_ROCI USA_RMW USA_EYE TOKYO_LAT TOKYO_LON TOKYO_GRADE TOKYO_WIND TOKYO_PRES TOKYO_R50_DIR TOKYO_R50_LONG TOKYO_R50_SHORT TOKYO_R30_DIR TOKYO_R30_LONG TOKYO_R30_SHORT TOKYO_LAND CMA_LAT CMA_LON CMA_CAT CMA_WIND CMA_PRES HKO_LAT HKO_LON HKO_CAT HKO_WIND HKO_PRES NEWDELHI_LAT NEWDELHI_LON NEWDELHI_GRADE NEWDELHI_WIND NEWDELHI_PRES NEWDELHI_CI NEWDELHI_DP NEWDELHI_POCI REUNION_LAT REUNION_LON REUNION_TYPE REUNION_WIND REUNION_PRES REUNION_TNUM REUNION_CI REUNION_RMW REUNION_R34_NE REUNION_R34_SE REUNION_R34_SW REUNION_R34_NW REUNION_R50_NE REUNION_R50_SE REUNION_R50_SW REUNION_R50_NW REUNION_R64_NE REUNION_R64_SE REUNION_R64_SW REUNION_R64_NW BOM_LAT BOM_LON BOM_TYPE BOM_WIND BOM_PRES BOM_TNUM BOM_CI BOM_RMW BOM_R34_NE BOM_R34_SE BOM_R34_SW BOM_R34_NW BOM_R50_NE BOM_R50_SE BOM_R50_SW BOM_R50_NW BOM_R64_NE BOM_R64_SE BOM_R64_SW BOM_R64_NW BOM_ROCI BOM_POCI BOM_EYE BOM_POS_METHOD BOM_PRES_METHOD NADI_LAT NADI_LON NADI_CAT NADI_WIND NADI_PRES WELLINGTON_LAT WELLINGTON_LON WELLINGTON_WIND WELLINGTON_PRES DS824_LAT DS824_LON DS824_STAGE DS824_WIND DS824_PRES TD9636_LAT TD9636_LON TD9636_STAGE TD9636_WIND TD9636_PRES TD9635_LAT TD9635_LON TD9635_WIND TD9635_PRES TD9635_ROCI NEUMANN_LAT NEUMANN_LON NEUMANN_CLASS NEUMANN_WIND NEUMANN_PRES MLC_LAT MLC_LON MLC_CLASS MLC_WIND MLC_PRES USA_GUST BOM_GUST BOM_GUST_PER REUNION_GUST REUNION_GUST_PER USA_SEAHGT USA_SEARAD_NE USA_SEARAD_SE USA_SEARAD_SW USA_SEARAD_NW STORM_SPEED STORM_DIR
1941319N14083 1941 68 NI BB NOT_NAMED 1941-11-15 00:00:00 TS 13.9000 83.3000 main 317 317 _________O____ -1 13.9000 83.3000 TC 30 0 0
1941319N14083 1941 68 NI BB NOT_NAMED 1941-11-15 03:00:00 TS 13.9000 83.3000 main 317 317 _________PO___ -1 13.9000 83.3000 TC 30 13.9000 83.3000 1 0 0
1941319N14083 1941 68 NI BB NOT_NAMED 1941-11-15 06:00:00 TS 13.9000 83.3000 main 317 317 _________OP___ -1 13.9000 83.3000 TC 30 13.9000 83.3000 1 0 0
1941319N14083 1941 68 NI BB NOT_NAMED 1941-11-15 09:00:00 TS 13.9000 83.3000 main 317 317 _________PP___ -1 13.9000 83.3000 TC 30 13.9000 83.3000 1 0 0
1941319N14083 1941 68 NI BB NOT_NAMED 1941-11-15 12:00:00 TS 13.9000 83.3000 main 317 317 _________OP___ -1 13.9000 83.3000 TC 30 13.9000 83.3000 1 0 0
1941319N14083 1941 68 NI BB NOT_NAMED 1941-11-15 15:00:00 TS 13.9000 83.3000 main 317 317 _________PO___ -1 13.9000 83.3000 TC 30 13.9000 83.3000 1 0 0
1941319N14083 1941 68 NI BB NOT_NAMED 1941-11-15 18:00:00 TS 13.9000 83.3000 main 317 317 _________OP___ -1 13.9000 83.3000 TC 30 13.9000 83.3000 1 0 0
1941319N14083 1941 68 NI BB NOT_NAMED 1941-11-15 21:00:00 TS 13.9000 83.3000 main 317 317 _________PP___ -1 13.9000 83.3000 TC 30 13.9000 83.3000 1 0 0
1941319N14083 1941 68 NI BB NOT_NAMED 1941-11-16 00:00:00 TS 13.9000 83.3000 main 317 317 _________OP___ -1 13.9000 83.3000 TC 30 13.9000 83.3000 1 0 0
1941319N14083 1941 68 NI BB NOT_NAMED 1941-11-16 03:00:00 TS 13.9000 83.3000 main 317 317 _________PO___ -1 13.9000 83.3000 TC 30 13.9000 83.3000 1 0 0
1941319N14083 1941 68 NI BB NOT_NAMED 1941-11-16 06:00:00 TS 13.9000 83.3000 main 317 317 _________OP___ -1 13.9000 83.3000 TC 30 13.9000 83.3000 1 0 0
1941319N14083 1941 68 NI BB NOT_NAMED 1941-11-16 09:00:00 TS 13.9000 83.3000 main 317 317 _________PP___ -1 13.9000 83.3000 TC 30 13.9000 83.3000 1 0 0
1941319N14083 1941 68 NI BB NOT_NAMED 1941-11-16 12:00:00 TS 13.9000 83.3000 main 317 317 _________OP___ -1 13.9000 83.3000 TC 30 13.9000 83.3000 1 0 0
1941319N14083 1941 68 NI BB NOT_NAMED 1941-11-16 15:00:00 TS 13.9000 83.3000 main 317 317 _________PO___ -1 13.9000 83.3000 TC 30 13.9000 83.3000 1 0 0
1941319N14083 1941 68 NI BB NOT_NAMED 1941-11-16 18:00:00 TS 13.8898 83.3000 main 317 317 _________OP___ -1 13.9000 83.3000 TC 30 13.8797 83.3000 1 0 0
1941319N14083 1941 68 NI BB NOT_NAMED 1941-11-16 21:00:00 TS 13.8737 83.3000 main 317 317 _________PP___ -1 13.8850 83.3000 TC 30 13.8625 83.3000 1 0 0
1941319N14083 1941 68 NI BB NOT_NAMED 1941-11-17 00:00:00 TS 13.8820 83.3000 main 317 317 _________OP___ -1 13.9000 83.3000 TC 30 13.8641 83.3000 1 1 18
1941319N14083 1941 68 NI BB NOT_NAMED 1941-11-17 03:00:00 TS 13.9387 83.3000 main 317 307 _________PO___ -1 13.9775 83.3000 TC 30 13.9000 83.3000 1 2 5
1941319N14083 1941 68 NI BB NOT_NAMED 1941-11-17 06:00:00 TS 14.0445 83.3000 main 307 287 _________OP___ -1 14.1000 83.3000 TC 30 13.9891 83.3000 1 2 6
1941319N14083 1941 68 NI BB NOT_NAMED 1941-11-17 09:00:00 TS 14.1813 83.3000 main 287 277 _________PP___ -1 14.2500 83.3000 TC 30 14.1125 83.3000 1 3 0
1941319N14083 1941 68 NI BB NOT_NAMED 1941-11-17 12:00:00 TS 14.3273 83.3000 main 277 267 _________OP___ -1 14.4000 83.3000 TC 30 14.2547 83.3000 1 3 0
1941319N14083 1941 68 NI BB NOT_NAMED 1941-11-17 15:00:00 TS 14.4500 83.3000 main 258 258 _________PO___ -1 14.5000 83.3000 TC 30 14.4000 83.3000 1 2 0
1941319N14083 1941 68 NI BB NOT_NAMED 1941-11-17 18:00:00 TS 14.5523 83.2919 main 248 238 _________OP___ -1 14.6000 83.3000 TC 30 14.5047 83.2839 1 2 357
1941319N14083 1941 68 NI BB NOT_NAMED 1941-11-17 21:00:00 TS 14.6700 83.2814 main 238 228 _________PP___ -1 14.7275 83.2925 TC 30 14.6125 83.2702 1 3 355
1941319N14083 1941 68 NI BB NOT_NAMED 1941-11-18 00:00:00 TS 14.8195 83.2857 main 228 208 _________OP___ -1 14.9000 83.3000 TC 30 14.7390 83.2714 1 4 6
1941319N14083 1941 68 NI BB NOT_NAMED 1941-11-18 03:00:00 TS 15.0175 83.3138 main 208 187 _________PO___ -1 15.1350 83.3275 TC 30 14.9000 83.3000 1 5 10
1941319N14083 1941 68 NI BB NOT_NAMED 1941-11-18 06:00:00 TS 15.2712 83.3694 main 187 170 _________OP___ -1 15.4000 83.4000 TC 30 15.1424 83.3387 1 5 16
1941319N14083 1941 68 NI BB NOT_NAMED 1941-11-18 09:00:00 TS 15.5399 83.4650 main 177 163 _________PP___ -1 15.6650 83.5200 TC 30 15.4148 83.4099 1 6 24
1941319N14083 1941 68 NI BB NOT_NAMED 1941-11-18 12:00:00 TS 15.7899 83.6131 main 165 165 _________OP___ -1 15.9000 83.7000 TC 30 15.6798 83.5262 1 6 36
1941319N14083 1941 68 NI BB NOT_NAMED 1941-11-18 15:00:00 TS 15.9937 83.8100 main 173 173 _________PO___ -1 16.0875 83.9200 TC 30 15.9000 83.7000 1 5 53
1941319N14083 1941 68 NI BB NOT_NAMED 1941-11-18 18:00:00 TS 16.1129 84.0507 main 193 189 _________OP___ -1 16.2000 84.2000 TC 30 16.0475 83.9388 1 6 71
1941319N14083 1941 68 NI BB NOT_NAMED 1941-11-18 21:00:00 TS 16.1699 84.3521 main 202 202 _________PP___ -1 16.2251 84.5351 TC 30 16.1331 84.2301 1 6 83
1941319N14083 1941 68 NI BB NOT_NAMED 1941-11-19 00:00:00 TS 16.1847 84.6709 main 223 223 _________OP___ -1 16.2000 84.9000 TC 30 16.1771 84.5563 1 5 87
1941319N14083 1941 68 NI BB NOT_NAMED 1941-11-19 03:00:00 NR 16.2000 84.9000 main 239 __________O___ -1 TC 16.2000 84.9000 1 4 86

About IBTrACS Database

This database is a web-friendly format of International Best Track Archive for Climate Stewardship (IBTrACS), a global best track data archive curated by NOAA dating back to 1842.

Updated: 2021-10-21